Time;durP1;ratioP1;P1;durP2;ratioP2;P2;SDS_P1;SDS_P2;PMS_P1;PMS_P2;Temp;Humidity;BMP_temperature;BMP_pressure;BME280_temperature;BME280_humidity;BME280_pressure;Samples;Min_cycle;Max_cycle;Signal;HPM_P1;HPM_P2
2021/01/28 00:02:18;;;;;;;14.40;9.93;;;;;;;-144.99;100.00;52529.63;5061038;28;20629;-73
2021/01/28 00:04:44;;;;;;;13.10;9.87;;;;;;;-144.99;100.00;52554.09;5056043;28;20692;-73
2021/01/28 00:07:10;;;;;;;15.40;8.60;;;;;;;-144.99;100.00;52562.25;5064373;28;20635;-73
2021/01/28 00:09:36;;;;;;;13.63;8.60;;;;;;;-144.99;100.00;52560.19;5065207;28;20619;-73
2021/01/28 00:12:03;;;;;;;14.43;7.87;;;;;;;-144.99;100.00;52543.91;5058160;28;21032;-73
2021/01/28 00:14:30;;;;;;;13.80;10.10;;;;;;;-144.99;100.00;52533.69;5061366;28;20660;-74
2021/01/28 00:16:56;;;;;;;15.03;8.37;;;;;;;-144.99;100.00;52566.31;5057677;28;20697;-74
2021/01/28 00:19:22;;;;;;;15.40;9.47;;;;;;;-144.99;100.00;52525.56;5055127;28;20631;-74
2021/01/28 00:21:48;;;;;;;14.10;9.07;;;;;;;-144.99;100.00;52562.25;5064959;28;20612;-74
2021/01/28 00:24:14;;;;;;;10.23;6.40;;;;;;;-144.99;100.00;52560.19;5066030;28;20668;-74
2021/01/28 00:26:40;;;;;;;14.47;7.90;;;;;;;-144.99;100.00;52541.84;5061214;28;20649;-73
2021/01/28 00:29:07;;;;;;;11.07;6.13;;;;;;;-144.99;100.00;52519.44;5055796;28;20750;-73
2021/01/28 00:31:33;;;;;;;9.90;7.30;;;;;;;-144.99;100.00;52550.00;5063296;28;21214;-73
2021/01/28 00:34:00;;;;;;;8.73;5.50;;;;;;;-144.99;100.00;52499.06;5051611;28;20655;-73
2021/01/28 00:36:26;;;;;;;11.20;6.83;;;;;;;-144.99;100.00;52513.31;5059238;28;20654;-72
2021/01/28 00:38:53;;;;;;;7.63;5.87;;;;;;;-144.99;100.00;52533.69;5066843;28;20615;-73
2021/01/28 00:41:19;;;;;;;9.20;5.40;;;;;;;-144.99;100.00;52480.72;5055630;28;20719;-72
2021/01/28 00:43:45;;;;;;;19.00;6.60;;;;;;;-144.99;100.00;52509.25;5058827;28;20734;-72
2021/01/28 00:46:11;;;;;;;13.90;8.07;;;;;;;-144.99;100.00;52517.41;5056137;28;20658;-72
2021/01/28 00:48:38;;;;;;;10.93;6.93;;;;;;;-144.99;100.00;52586.69;5056336;28;20619;-74
2021/01/28 00:51:05;;;;;;;10.20;7.33;;;;;;;-144.99;100.00;52529.63;5063159;28;20631;-75
2021/01/28 00:53:31;;;;;;;12.20;8.53;;;;;;;-144.99;100.00;52529.63;5054099;28;20627;-75
2021/01/28 00:55:57;;;;;;;12.47;8.20;;;;;;;-144.99;100.00;52529.63;5055534;28;20651;-74
2021/01/28 00:58:26;;;;;;;13.23;6.80;;;;;;;-144.99;100.00;52533.69;5058714;28;20618;-72
2021/01/28 01:00:53;;;;;;;8.13;5.70;;;;;;;-144.99;100.00;52497.00;5055014;28;20705;-71
2021/01/28 01:03:24;;;;;;;9.83;7.87;;;;;;;-144.99;100.00;52537.78;5056539;28;20794;-72
2021/01/28 01:05:51;;;;;;;8.53;6.37;;;;;;;-144.99;100.00;52554.09;5065606;28;20628;-72
2021/01/28 01:08:20;;;;;;;8.80;7.33;;;;;;;-144.99;100.00;52527.59;5065972;28;20635;-73
2021/01/28 01:10:48;;;;;;;12.40;8.13;;;;;;;-144.99;100.00;52554.09;5059887;28;20692;-72
2021/01/28 01:13:17;;;;;;;12.07;7.97;;;;;;;-144.99;100.00;52566.31;5056062;28;20887;-72
2021/01/28 01:15:44;;;;;;;11.90;8.27;;;;;;;-144.99;100.00;52478.66;5061223;28;20667;-74
2021/01/28 01:18:13;;;;;;;12.23;9.53;;;;;;;-144.99;100.00;52525.56;5053472;28;21052;-72
2021/01/28 01:20:39;;;;;;;11.70;7.80;;;;;;;-144.99;100.00;52533.69;5056616;28;20624;-73
2021/01/28 01:23:06;;;;;;;15.40;10.03;;;;;;;-144.99;100.00;52517.41;5061979;28;20615;-74
2021/01/28 01:25:32;;;;;;;16.03;9.10;;;;;;;-144.99;100.00;52562.25;5066129;28;20618;-73
2021/01/28 01:27:59;;;;;;;13.23;9.87;;;;;;;-144.99;100.00;52592.81;5058659;28;20662;-73
2021/01/28 01:30:25;;;;;;;18.60;11.17;;;;;;;-144.99;100.00;52552.03;5051145;28;20616;-73
2021/01/28 01:32:52;;;;;;;16.80;11.60;;;;;;;-144.99;100.00;52537.78;5053404;28;20635;-74
2021/01/28 01:35:20;;;;;;;15.73;11.13;;;;;;;-144.99;100.00;52543.91;5053357;28;21334;-72
2021/01/28 01:37:46;;;;;;;16.53;11.73;;;;;;;-144.99;100.00;52554.09;5055832;28;20650;-72
2021/01/28 01:40:18;;;;;;;18.43;12.70;;;;;;;-144.99;100.00;52564.28;5056855;28;20976;-73
2021/01/28 01:42:45;;;;;;;19.63;10.57;;;;;;;-144.99;100.00;52511.28;5056228;28;20628;-72
2021/01/28 01:45:24;;;;;;;13.80;8.97;;;;;;;-144.99;100.00;52533.69;5061852;28;20718;-72
2021/01/28 01:47:53;;;;;;;14.80;8.63;;;;;;;-144.99;100.00;52513.31;5052285;28;21015;-71
2021/01/28 01:50:30;;;;;;;16.27;11.10;;;;;;;-144.99;100.00;52533.69;5063261;28;20607;-71
2021/01/28 01:52:58;;;;;;;14.00;9.00;;;;;;;-144.99;100.00;52509.25;5053132;28;20614;-73
2021/01/28 01:55:25;;;;;;;21.00;11.83;;;;;;;-144.99;100.00;52525.56;5059398;28;20646;-71
2021/01/28 01:57:51;;;;;;;20.80;11.27;;;;;;;-144.99;100.00;52517.41;5056556;28;20646;-72
2021/01/28 02:00:21;;;;;;;18.43;9.97;;;;;;;-144.99;100.00;52562.25;5051309;28;20624;-73
2021/01/28 02:02:53;;;;;;;14.57;9.83;;;;;;;-144.99;100.00;52527.59;5060433;28;20746;-75
2021/01/28 02:05:24;;;;;;;14.57;9.67;;;;;;;-144.99;100.00;52509.25;5062907;28;21027;-72
2021/01/28 02:07:51;;;;;;;17.93;10.67;;;;;;;-144.99;100.00;52533.69;5050370;28;20761;-72
2021/01/28 02:10:21;;;;;;;14.17;9.87;;;;;;;-144.99;100.00;52594.84;5055360;28;20616;-73
2021/01/28 02:12:48;;;;;;;18.47;10.87;;;;;;;-144.99;100.00;52588.75;5061112;28;20627;-72
2021/01/28 02:15:14;;;;;;;17.27;11.13;;;;;;;-144.99;100.00;52545.94;5059308;28;20643;-74
2021/01/28 02:17:43;;;;;;;15.20;9.13;;;;;;;-144.99;100.00;52558.16;5062913;28;21004;-75
2021/01/28 02:20:40;;;;;;;15.63;11.37;;;;;;;-144.99;100.00;52541.84;5053200;28;20627;-76
2021/01/28 02:23:15;;;;;;;15.50;9.53;;;;;;;-144.99;100.00;52497.00;5053056;28;20638;-77
2021/01/28 02:25:44;;;;;;;14.77;9.57;;;;;;;-144.99;100.00;52566.31;5064160;28;20664;-75
2021/01/28 02:28:13;;;;;;;15.30;8.80;;;;;;;-144.99;100.00;52550.00;5057874;28;20679;-77
2021/01/28 02:30:41;;;;;;;13.47;8.80;;;;;;;-144.99;100.00;52554.09;5049572;28;20695;-77
2021/01/28 02:33:09;;;;;;;17.50;10.33;;;;;;;-144.99;100.00;52550.00;5050158;28;20632;-76
2021/01/28 02:35:36;;;;;;;15.40;10.30;;;;;;;-144.99;100.00;52560.19;5060868;28;20970;-75
2021/01/28 02:38:06;;;;;;;18.77;10.83;;;;;;;-144.99;100.00;52562.25;5052900;28;20644;-75
2021/01/28 02:40:33;;;;;;;12.17;8.30;;;;;;;-144.99;100.00;52537.78;5053083;28;20622;-74
2021/01/28 02:43:00;;;;;;;14.00;9.33;;;;;;;-144.99;100.00;52541.84;5054883;28;20653;-76
2021/01/28 02:45:29;;;;;;;17.80;10.60;;;;;;;-144.99;100.00;52533.69;5058631;28;20945;-75
2021/01/28 02:47:57;;;;;;;17.17;10.97;;;;;;;-144.99;100.00;52529.63;5050593;28;20644;-76
2021/01/28 02:50:23;;;;;;;18.47;11.43;;;;;;;-144.99;100.00;52537.78;5063709;28;21187;-76
2021/01/28 02:52:52;;;;;;;17.10;9.50;;;;;;;-144.99;100.00;52517.41;5055850;28;20626;-75
2021/01/28 02:55:18;;;;;;;20.20;11.47;;;;;;;-144.99;100.00;52537.78;5059628;28;20709;-76
2021/01/28 02:57:44;;;;;;;19.47;10.87;;;;;;;-144.99;100.00;52554.09;5055242;28;20656;-76
2021/01/28 03:00:14;;;;;;;17.27;10.67;;;;;;;-144.99;100.00;52570.38;5052596;28;20638;-77
2021/01/28 03:02:41;;;;;;;17.57;11.57;;;;;;;-144.99;100.00;52525.56;5059900;28;21168;-74
2021/01/28 03:05:08;;;;;;;17.20;12.13;;;;;;;-144.99;100.00;52541.84;5060994;28;20603;-76
2021/01/28 03:07:35;;;;;;;15.23;9.37;;;;;;;-144.99;100.00;52541.84;5055931;28;21204;-75
2021/01/28 03:10:01;;;;;;;20.70;12.97;;;;;;;-144.99;100.00;52574.47;5057555;28;20632;-73
2021/01/28 03:12:27;;;;;;;16.20;9.50;;;;;;;-144.99;100.00;52529.63;5062139;28;20626;-76
2021/01/28 03:14:53;;;;;;;15.80;11.63;;;;;;;-144.99;100.00;52513.31;5052421;28;20705;-76
2021/01/28 03:17:20;;;;;;;16.23;10.30;;;;;;;-144.99;100.00;52509.25;5065102;28;21023;-78
2021/01/28 03:19:46;;;;;;;18.47;10.47;;;;;;;-144.99;100.00;52558.16;5053249;28;20580;-75
2021/01/28 03:22:12;;;;;;;16.40;9.43;;;;;;;-144.99;100.00;52562.25;5056476;28;20611;-76
2021/01/28 03:24:38;;;;;;;15.27;10.13;;;;;;;-144.99;100.00;52541.84;5065670;28;20634;-76
2021/01/28 03:27:04;;;;;;;16.67;10.50;;;;;;;-144.99;100.00;52562.25;5058551;28;20650;-75
2021/01/28 03:29:30;;;;;;;15.53;10.17;;;;;;;-144.99;100.00;52539.81;5055357;28;20628;-73
2021/01/28 03:31:57;;;;;;;13.30;8.80;;;;;;;-144.99;100.00;52554.09;5054567;28;20623;-75
2021/01/28 03:34:24;;;;;;;17.07;9.03;;;;;;;-144.99;100.00;52562.25;5054249;28;21490;-75
2021/01/28 03:36:50;;;;;;;15.90;10.00;;;;;;;-144.99;100.00;52564.28;5056319;28;20694;-75
2021/01/28 03:39:17;;;;;;;14.07;9.40;;;;;;;-144.99;100.00;52550.00;5068981;28;20656;-76
2021/01/28 03:41:43;;;;;;;15.67;9.13;;;;;;;-144.99;100.00;52523.50;5062767;28;20612;-76
2021/01/28 03:44:09;;;;;;;17.20;10.37;;;;;;;-144.99;100.00;52576.50;5062907;28;20621;-76
2021/01/28 03:46:35;;;;;;;12.93;9.07;;;;;;;-144.99;100.00;52550.00;5057735;28;20646;-76
2021/01/28 03:49:01;;;;;;;13.37;8.23;;;;;;;-144.99;100.00;52554.09;5057964;28;20620;-75
2021/01/28 03:51:28;;;;;;;16.27;8.97;;;;;;;-144.99;100.00;52543.91;5062636;28;20681;-76
2021/01/28 03:53:54;;;;;;;14.97;9.50;;;;;;;-144.99;100.00;52594.84;5055764;28;21148;-79
2021/01/28 03:56:20;;;;;;;12.97;8.67;;;;;;;-144.99;100.00;52556.13;5064975;28;20728;-74
2021/01/28 03:58:46;;;;;;;12.37;8.80;;;;;;;-144.99;100.00;52586.69;5059873;28;20922;-73
2021/01/28 04:01:12;;;;;;;11.03;7.77;;;;;;;-144.99;100.00;52545.94;5059141;28;20627;-76
2021/01/28 04:03:38;;;;;;;14.07;8.27;;;;;;;-144.99;100.00;52550.00;5057174;28;20623;-74
2021/01/28 04:06:05;;;;;;;13.07;8.83;;;;;;;-144.99;100.00;52507.19;5065479;28;20623;-74
2021/01/28 04:08:31;;;;;;;12.77;6.20;;;;;;;-144.99;100.00;52545.94;5068591;28;20650;-75
2021/01/28 04:10:58;;;;;;;11.87;7.30;;;;;;;-144.99;100.00;52547.97;5060281;28;20649;-74
2021/01/28 04:13:24;;;;;;;8.20;5.87;;;;;;;-144.99;100.00;52566.31;5063581;28;20782;-74
2021/01/28 04:15:50;;;;;;;12.17;7.80;;;;;;;-144.99;100.00;52529.63;5062768;28;20659;-74
2021/01/28 04:18:17;;;;;;;12.87;8.23;;;;;;;-144.99;100.00;52586.69;5053220;28;20612;-74
2021/01/28 04:20:44;;;;;;;9.50;6.27;;;;;;;-144.99;100.00;52554.09;5061527;28;20717;-74
2021/01/28 04:23:10;;;;;;;10.10;6.47;;;;;;;-144.99;100.00;52574.47;5064689;28;20637;-74
2021/01/28 04:25:37;;;;;;;7.70;6.20;;;;;;;-144.99;100.00;52558.16;5064255;28;21186;-75
2021/01/28 04:28:03;;;;;;;7.63;5.27;;;;;;;-144.99;100.00;52550.00;5060723;28;21207;-73
2021/01/28 04:30:32;;;;;;;8.13;5.60;;;;;;;-144.99;100.00;52558.16;5052427;28;21247;-73
2021/01/28 04:32:59;;;;;;;13.33;7.10;;;;;;;-144.99;100.00;52525.56;5055334;28;20630;-73
2021/01/28 04:35:25;;;;;;;8.77;5.63;;;;;;;-144.99;100.00;52586.69;5051735;28;21031;-73
2021/01/28 04:37:51;;;;;;;8.30;5.60;;;;;;;-144.99;100.00;52513.31;5068032;22;21463;-76
2021/01/28 04:40:28;;;;;;;10.90;6.63;;;;;;;-144.99;100.00;52584.66;5041613;28;20719;-75
2021/01/28 04:42:58;;;;;;;8.17;5.20;;;;;;;-144.99;100.00;52598.94;5031534;28;20625;-75
2021/01/28 04:45:28;;;;;;;9.60;6.23;;;;;;;-144.99;100.00;52486.81;5038520;28;20711;-75
2021/01/28 04:47:57;;;;;;;8.43;5.10;;;;;;;-144.99;100.00;52582.63;5023477;28;20706;-74
2021/01/28 04:50:32;;;;;;;7.17;4.60;;;;;;;-144.99;100.00;52590.78;5028774;28;20720;-75
2021/01/28 04:53:02;;;;;;;8.03;6.10;;;;;;;-144.99;100.00;52592.81;5031129;28;20657;-75
2021/01/28 04:55:35;;;;;;;8.27;4.93;;;;;;;-144.99;100.00;52543.91;5022674;28;21041;-75
2021/01/28 04:58:02;;;;;;;7.40;5.10;;;;;;;-144.99;100.00;52586.69;5019552;28;21002;-72
2021/01/28 05:00:28;;;;;;;7.07;4.87;;;;;;;-144.99;100.00;52556.13;5018582;28;20684;-72
2021/01/28 05:02:59;;;;;;;11.43;4.77;;;;;;;-144.99;100.00;52568.34;5029404;28;20663;-72
2021/01/28 05:05:25;;;;;;;7.50;5.40;;;;;;;-144.99;100.00;52558.16;5028282;28;21157;-74
2021/01/28 05:07:51;;;;;;;10.10;5.53;;;;;;;-144.99;100.00;52550.00;5029220;28;20657;-73
2021/01/28 05:10:37;;;;;;;9.07;5.40;;;;;;;-144.99;100.00;52533.69;5020351;28;20613;-73
2021/01/28 05:13:05;;;;;;;8.60;6.17;;;;;;;-144.99;100.00;52550.00;5023354;28;20643;-73
2021/01/28 05:15:35;;;;;;;9.03;5.50;;;;;;;-144.99;100.00;52550.00;5028890;28;20654;-73
2021/01/28 05:18:04;;;;;;;7.40;4.77;;;;;;;-144.99;100.00;52574.47;5024501;28;20736;-73
2021/01/28 05:20:31;;;;;;;6.73;4.53;;;;;;;-144.99;100.00;52590.78;5019557;28;20716;-72
2021/01/28 05:23:01;;;;;;;7.90;5.70;;;;;;;-144.99;100.00;52574.47;5028974;28;20620;-74
2021/01/28 05:25:35;;;;;;;10.27;6.03;;;;;;;-144.99;100.00;52584.66;5021665;28;20616;-74
2021/01/28 05:28:17;;;;;;;8.00;6.03;;;;;;;-144.99;100.00;52550.00;5029195;28;20662;-74
2021/01/28 05:30:45;;;;;;;8.30;5.13;;;;;;;-144.99;100.00;52562.25;5018687;28;20639;-73
2021/01/28 05:33:32;;;;;;;11.87;4.93;;;;;;;-144.99;100.00;52584.66;5020722;28;20625;-74
2021/01/28 05:36:06;;;;;;;8.17;5.47;;;;;;;-144.99;100.00;52519.44;5014127;28;20645;-72
2021/01/28 05:38:37;;;;;;;5.87;5.07;;;;;;;-144.99;100.00;52554.09;5021228;28;20767;-73
2021/01/28 05:41:05;;;;;;;6.10;5.23;;;;;;;-144.99;100.00;52584.66;5026043;28;20624;-73
2021/01/28 05:43:35;;;;;;;12.33;7.93;;;;;;;-144.99;100.00;52598.94;5027396;28;20613;-73
2021/01/28 05:46:15;;;;;;;11.40;8.30;;;;;;;-144.99;100.00;52545.94;5023521;28;20617;-74
2021/01/28 05:48:42;;;;;;;6.87;6.07;;;;;;;-144.99;100.00;52531.66;5017451;28;20640;-74
2021/01/28 05:51:14;;;;;;;10.47;5.87;;;;;;;-144.99;100.00;52564.28;5016465;28;20687;-75
2021/01/28 05:53:40;;;;;;;9.57;5.77;;;;;;;-144.99;100.00;52576.50;5019111;28;20618;-75
2021/01/28 05:56:13;;;;;;;7.10;5.83;;;;;;;-144.99;100.00;52533.69;5018570;28;21254;-75
2021/01/28 05:58:47;;;;;;;7.97;5.87;;;;;;;-144.99;100.00;52574.47;5018286;28;20654;-75
2021/01/28 06:01:28;;;;;;;6.53;4.80;;;;;;;-144.99;100.00;52566.31;5020217;28;20713;-74
2021/01/28 06:04:22;;;;;;;8.50;4.97;;;;;;;-144.99;100.00;52550.00;5020028;28;20891;-74
2021/01/28 06:07:24;;;;;;;8.27;6.27;;;;;;;-144.99;100.00;52556.13;5016147;28;20621;-74
2021/01/28 06:10:12;;;;;;;7.77;5.47;;;;;;;-144.99;100.00;52550.00;5014777;28;20625;-73
2021/01/28 06:12:52;;;;;;;7.73;5.13;;;;;;;-144.99;100.00;52525.56;5018259;28;20928;-74
2021/01/28 06:15:29;;;;;;;9.67;5.67;;;;;;;-144.99;100.00;52611.16;5027539;28;20652;-74
2021/01/28 06:18:31;;;;;;;9.40;4.97;;;;;;;-144.99;100.00;52529.63;5018475;28;20690;-74
2021/01/28 06:21:25;;;;;;;8.10;4.90;;;;;;;-144.99;100.00;52566.31;5017248;28;20715;-73
2021/01/28 06:24:09;;;;;;;7.07;4.90;;;;;;;-144.99;100.00;52541.84;5018633;28;20962;-73
2021/01/28 06:26:49;;;;;;;8.17;5.53;;;;;;;-144.99;100.00;52558.16;5025470;28;20625;-71
2021/01/28 06:29:50;;;;;;;9.07;5.93;;;;;;;-144.99;100.00;52566.31;5019798;28;20707;-72
2021/01/28 06:32:43;;;;;;;7.07;4.70;;;;;;;-144.99;100.00;52578.53;5017562;28;20640;-72
2021/01/28 06:35:30;;;;;;;8.93;6.60;;;;;;;-144.99;100.00;52582.63;5007619;28;20645;-71
2021/01/28 06:38:11;;;;;;;7.17;5.60;;;;;;;-144.99;100.00;52541.84;5015963;28;20652;-72
2021/01/28 06:40:47;;;;;;;7.87;4.90;;;;;;;-144.99;100.00;52525.56;5024224;28;21233;-73
2021/01/28 06:43:18;;;;;;;9.33;6.13;;;;;;;-144.99;100.00;52541.84;5015954;28;20601;-72
2021/01/28 06:45:56;;;;;;;7.50;5.23;;;;;;;-144.99;100.00;52570.38;5024677;28;20617;-73
2021/01/28 06:48:29;;;;;;;12.00;6.87;;;;;;;-144.99;100.00;52517.41;5011988;28;20657;-73
2021/01/28 06:51:01;;;;;;;12.10;7.03;;;;;;;-144.99;100.00;52574.47;5016456;28;20661;-73
2021/01/28 06:53:42;;;;;;;10.13;7.37;;;;;;;-144.99;100.00;52554.09;5022323;28;20789;-72
2021/01/28 06:56:15;;;;;;;9.97;6.60;;;;;;;-144.99;100.00;52550.00;5022641;28;20655;-72
2021/01/28 06:59:05;;;;;;;9.93;5.83;;;;;;;-144.99;100.00;52566.31;5020244;28;21361;-72
2021/01/28 07:01:36;;;;;;;8.80;6.80;;;;;;;-144.99;100.00;52566.31;5019870;28;20625;-72
2021/01/28 07:04:13;;;;;;;12.77;6.73;;;;;;;-144.99;100.00;52554.09;5025938;28;20613;-72
2021/01/28 07:06:45;;;;;;;9.40;7.30;;;;;;;-144.99;100.00;52570.38;5028278;28;20624;-73
2021/01/28 07:09:21;;;;;;;8.37;5.87;;;;;;;-144.99;100.00;52609.13;5030640;28;20639;-73
2021/01/28 07:11:54;;;;;;;8.23;5.73;;;;;;;-144.99;100.00;52558.16;5029650;28;20643;-75
2021/01/28 07:14:20;;;;;;;11.30;7.27;;;;;;;-144.99;100.00;52537.78;5030129;28;20670;-74
2021/01/28 07:16:58;;;;;;;9.60;6.50;;;;;;;-144.99;100.00;52582.63;5031686;28;20656;-74
2021/01/28 07:19:29;;;;;;;10.20;6.47;;;;;;;-144.99;100.00;52545.94;5016235;28;21057;-75
2021/01/28 07:21:57;;;;;;;11.47;7.67;;;;;;;-144.99;100.00;52570.38;5029198;28;20632;-74
2021/01/28 07:24:33;;;;;;;8.27;6.43;;;;;;;-144.99;100.00;52574.47;5022118;28;20630;-74
2021/01/28 07:27:02;;;;;;;10.83;7.07;;;;;;;-144.99;100.00;52552.03;5030059;28;21273;-72
2021/01/28 07:29:55;;;;;;;11.43;8.43;;;;;;;-144.99;100.00;52582.63;5026449;28;20616;-74
2021/01/28 07:32:54;;;;;;;10.27;7.70;;;;;;;-144.99;100.00;52517.41;5020767;28;20660;-74
2021/01/28 07:35:41;;;;;;;11.57;8.20;;;;;;;-144.99;100.00;52566.31;5017949;28;20648;-76
2021/01/28 07:38:39;;;;;;;9.73;6.83;;;;;;;-144.99;100.00;52582.63;5020682;28;20667;-73
2021/01/28 07:41:18;;;;;;;11.80;8.97;;;;;;;-144.99;100.00;52578.53;5025192;28;20697;-75
2021/01/28 07:43:46;;;;;;;13.33;7.83;;;;;;;-144.99;100.00;52562.25;5030153;28;20681;-74
2021/01/28 07:46:16;;;;;;;9.97;6.63;;;;;;;-144.99;100.00;52582.63;5024207;28;20628;-73
2021/01/28 07:48:44;;;;;;;10.57;7.53;;;;;;;-144.99;100.00;52586.69;5020714;28;20749;-71
2021/01/28 07:51:30;;;;;;;14.53;9.47;;;;;;;-144.99;100.00;52611.16;5030731;28;20617;-73
2021/01/28 07:53:57;;;;;;;11.63;8.67;;;;;;;-144.99;100.00;52541.84;5031288;28;21030;-73
2021/01/28 07:56:47;;;;;;;9.23;6.87;;;;;;;-144.99;100.00;52529.63;5017605;28;20674;-74
2021/01/28 07:59:23;;;;;;;13.50;7.77;;;;;;;-144.99;100.00;52541.84;5024947;28;20690;-74
2021/01/28 08:01:52;;;;;;;12.27;7.63;;;;;;;-144.99;100.00;52554.09;5014635;28;20938;-71
2021/01/28 08:04:29;;;;;;;11.80;9.07;;;;;;;-144.99;100.00;52533.69;5027567;28;20636;-73
2021/01/28 08:06:59;;;;;;;10.73;7.33;;;;;;;-144.99;100.00;52525.56;5019105;28;21152;-75
2021/01/28 08:09:25;;;;;;;8.60;5.47;;;;;;;-144.99;100.00;52558.16;5023718;28;20633;-73
2021/01/28 08:11:55;;;;;;;7.93;5.27;;;;;;;-144.99;100.00;52554.09;5022058;28;20616;-72
2021/01/28 08:14:25;;;;;;;10.90;7.93;;;;;;;-144.99;100.00;52521.47;5024406;28;20631;-72
2021/01/28 08:16:54;;;;;;;11.23;7.37;;;;;;;-144.99;100.00;52570.38;5017613;28;20639;-71
2021/01/28 08:19:22;;;;;;;9.20;7.07;;;;;;;-144.99;100.00;52554.09;5020639;28;21083;-74
2021/01/28 08:21:49;;;;;;;8.20;6.77;;;;;;;-144.99;100.00;52519.44;5029855;28;20723;-74
2021/01/28 08:24:34;;;;;;;11.47;7.90;;;;;;;-144.99;100.00;52539.81;5021670;28;20641;-73
2021/01/28 08:27:10;;;;;;;8.93;7.27;;;;;;;-144.99;100.00;52537.78;5029758;28;20959;-72
2021/01/28 08:29:36;;;;;;;11.60;7.33;;;;;;;-144.99;100.00;52537.78;5021718;28;20639;-73
2021/01/28 08:32:03;;;;;;;11.33;9.00;;;;;;;-144.99;100.00;52578.53;5026547;28;20744;-73
2021/01/28 08:34:31;;;;;;;9.73;6.83;;;;;;;-144.99;100.00;52521.47;5010579;28;21235;-73
2021/01/28 08:37:02;;;;;;;8.67;5.70;;;;;;;-144.99;100.00;52513.31;5023175;28;20973;-73
2021/01/28 08:39:31;;;;;;;10.17;6.00;;;;;;;-144.99;100.00;52545.94;5028873;28;20728;-73
2021/01/28 08:42:03;;;;;;;7.37;5.83;;;;;;;-144.99;100.00;52545.94;5029414;28;20716;-72
2021/01/28 08:44:31;;;;;;;9.50;7.10;;;;;;;-144.99;100.00;52562.25;5027119;28;20704;-73
2021/01/28 08:47:06;;;;;;;9.17;7.40;;;;;;;-144.99;100.00;52521.47;5025092;28;20741;-73
2021/01/28 08:49:33;;;;;;;9.43;7.87;;;;;;;-144.99;100.00;52525.56;5025708;28;20727;-74
2021/01/28 08:52:02;;;;;;;8.30;7.10;;;;;;;-144.99;100.00;52529.63;5028120;28;21035;-75
2021/01/28 08:54:31;;;;;;;9.20;6.20;;;;;;;-144.99;100.00;52545.94;5019158;28;20676;-75
2021/01/28 08:56:59;;;;;;;7.17;6.23;;;;;;;-144.99;100.00;52533.69;5022182;28;20659;-75
2021/01/28 08:59:31;;;;;;;10.00;6.47;;;;;;;-144.99;100.00;52517.41;5028951;28;21000;-74
2021/01/28 09:01:59;;;;;;;10.03;6.40;;;;;;;-144.99;100.00;52525.56;5021899;28;20652;-74
2021/01/28 09:04:29;;;;;;;8.37;6.73;;;;;;;-144.99;100.00;52492.94;5019502;28;20630;-74
2021/01/28 09:06:55;;;;;;;9.53;6.70;;;;;;;-144.99;100.00;52554.09;5017754;28;20624;-74
2021/01/28 09:09:25;;;;;;;11.53;7.23;;;;;;;-144.99;100.00;52537.78;5026785;28;21199;-73
2021/01/28 09:11:54;;;;;;;11.73;6.67;;;;;;;-144.99;100.00;52541.84;5016240;28;20647;-72
2021/01/28 09:14:32;;;;;;;9.93;8.40;;;;;;;-144.99;100.00;52529.63;5028718;28;20624;-75
2021/01/28 09:17:02;;;;;;;8.00;7.13;;;;;;;-144.99;100.00;52529.63;5018262;28;20686;-74
2021/01/28 09:19:31;;;;;;;9.63;7.23;;;;;;;-144.99;100.00;52550.00;5013924;28;21218;-75
2021/01/28 09:22:03;;;;;;;8.60;6.47;;;;;;;-144.99;100.00;52525.56;5029436;28;20824;-74
2021/01/28 09:24:36;;;;;;;8.60;7.40;;;;;;;-144.99;100.00;52523.50;5021157;28;21099;-76
2021/01/28 09:27:17;;;;;;;10.47;8.30;;;;;;;-144.99;100.00;52556.13;5014978;28;20660;-74
2021/01/28 09:29:45;;;;;;;11.87;7.43;;;;;;;-144.99;100.00;52529.63;5020465;28;21017;-74
2021/01/28 09:32:14;;;;;;;9.40;7.03;;;;;;;-144.99;100.00;52562.25;5017625;28;20620;-75
2021/01/28 09:34:41;;;;;;;9.67;7.90;;;;;;;-144.99;100.00;52529.63;5011525;28;20680;-74
2021/01/28 09:37:16;;;;;;;11.40;7.43;;;;;;;-144.99;100.00;52533.69;5024601;28;20752;-75
2021/01/28 09:39:44;;;;;;;10.77;6.50;;;;;;;-144.99;100.00;52517.41;5024664;28;20635;-72
2021/01/28 09:42:25;;;;;;;8.77;7.90;;;;;;;-144.99;100.00;52521.47;5030008;28;21185;-75
2021/01/28 09:44:52;;;;;;;10.33;7.60;;;;;;;-144.99;100.00;52513.31;5015649;28;20668;-75
2021/01/28 09:47:24;;;;;;;9.07;7.17;;;;;;;-144.99;100.00;52533.69;5019898;28;20644;-75
2021/01/28 09:49:52;;;;;;;10.53;7.83;;;;;;;-144.99;100.00;52513.31;5022036;28;20670;-73
2021/01/28 09:52:23;;;;;;;9.90;7.47;;;;;;;-144.99;100.00;52529.63;5022322;28;20962;-75
2021/01/28 09:54:51;;;;;;;9.73;6.63;;;;;;;-144.99;100.00;52529.63;5025450;28;20641;-74
2021/01/28 09:57:18;;;;;;;9.03;6.00;;;;;;;-144.99;100.00;52539.81;5027224;28;20978;-74
2021/01/28 09:59:45;;;;;;;10.27;7.93;;;;;;;-144.99;100.00;52519.44;5020801;28;20632;-74
2021/01/28 10:02:16;;;;;;;11.03;7.57;;;;;;;-144.99;100.00;52558.16;5038919;28;20625;-74
2021/01/28 10:04:43;;;;;;;10.43;6.87;;;;;;;-144.99;100.00;52525.56;5028613;28;20687;-73
2021/01/28 10:07:10;;;;;;;10.47;7.63;;;;;;;-144.99;100.00;52529.63;5022202;28;21077;-73
2021/01/28 10:09:36;;;;;;;9.53;6.50;;;;;;;-144.99;100.00;52527.59;5024166;28;20971;-73
2021/01/28 10:12:02;;;;;;;9.63;6.83;;;;;;;-144.99;99.75;52550.00;5021639;28;20690;-72
2021/01/28 10:14:29;;;;;;;11.83;7.00;;;;;;;-144.99;99.69;52537.78;5025424;28;21375;-72
2021/01/28 10:16:55;;;;;;;12.23;7.73;;;;;;;-144.99;98.24;52497.00;5014710;28;20679;-74
2021/01/28 10:19:21;;;;;;;11.87;6.33;;;;;;;-144.99;95.99;52501.09;5021596;28;20616;-75
2021/01/28 10:21:48;;;;;;;8.40;6.13;;;;;;;-144.99;94.24;52480.72;5021530;28;20628;-73
2021/01/28 10:24:14;;;;;;;7.90;5.53;;;;;;;-144.99;91.94;52537.78;5026111;28;20632;-74
2021/01/28 10:26:40;;;;;;;9.33;6.87;;;;;;;-144.99;91.39;52505.16;5025203;28;20624;-72
2021/01/28 10:29:06;;;;;;;9.07;5.10;;;;;;;-144.99;91.31;52529.63;5020951;28;20630;-74
2021/01/28 10:31:34;;;;;;;8.67;4.53;;;;;;;-144.99;91.58;52525.56;5024550;28;21073;-72
2021/01/28 10:34:00;;;;;;;10.87;6.60;;;;;;;-144.99;89.51;52517.41;5023074;28;20664;-72
2021/01/28 10:36:26;;;;;;;8.73;5.40;;;;;;;-144.99;90.40;52521.47;5014619;28;20773;-72
2021/01/28 10:38:52;;;;;;;7.90;5.17;;;;;;;-144.99;90.93;52543.91;5027484;28;21249;-73
2021/01/28 10:41:18;;;;;;;10.83;5.73;;;;;;;-144.99;88.82;52545.94;5027862;28;20668;-73
2021/01/28 10:43:45;;;;;;;6.87;4.33;;;;;;;-144.99;89.13;52562.25;5029051;28;20788;-73
2021/01/28 10:46:11;;;;;;;7.53;5.23;;;;;;;-144.99;89.98;52529.63;5028246;28;20616;-77
2021/01/28 10:48:38;;;;;;;7.93;6.27;;;;;;;-144.99;88.77;52545.94;5016460;28;20655;-75
2021/01/28 10:51:05;;;;;;;10.20;5.43;;;;;;;-144.99;89.50;52562.25;5019965;28;20626;-75
2021/01/28 10:53:33;;;;;;;7.80;4.80;;;;;;;-144.99;89.31;52527.59;5020612;28;20646;-74
2021/01/28 10:55:59;;;;;;;8.13;4.83;;;;;;;-144.99;89.70;52564.28;5025678;28;20806;-74
2021/01/28 10:58:26;;;;;;;8.80;4.67;;;;;;;-144.99;90.44;52505.16;5019353;28;20652;-75
2021/01/28 11:00:52;;;;;;;9.43;5.43;;;;;;;-144.99;91.02;52564.28;5023819;28;20609;-75
2021/01/28 11:03:19;;;;;;;6.57;4.77;;;;;;;-144.99;90.51;52497.00;5025327;28;20721;-76
2021/01/28 11:05:46;;;;;;;6.87;4.30;;;;;;;-144.99;91.15;52517.41;5023335;28;20739;-73
2021/01/28 11:08:12;;;;;;;5.63;3.40;;;;;;;-144.99;89.99;52525.56;5022471;28;20667;-74
2021/01/28 11:10:39;;;;;;;5.33;3.47;;;;;;;-144.99;89.67;52531.66;5011713;28;20720;-74
2021/01/28 11:13:06;;;;;;;6.03;3.53;;;;;;;-144.99;88.12;52525.56;5017356;28;21274;-78
2021/01/28 11:15:36;;;;;;;9.40;4.27;;;;;;;-144.99;89.00;52574.47;5026579;28;20675;-75
2021/01/28 11:18:03;;;;;;;5.50;3.50;;;;;;;-144.99;89.48;52545.94;5020629;28;20669;-74
2021/01/28 11:20:29;;;;;;;4.57;4.10;;;;;;;-144.99;89.14;52566.31;5016559;28;20692;-77